Palo Alto Of Santa Clara County, CA

3:29 PM PDT on August 29, 2014 (GMT -0700)
San Jose International | Change Station
CLOSE
Current Station
Airport
Location: San Jose,
Elevation: 59 ft
Nearby Weather Stations

Elev 59 ft 37.36 °N, 121.92 °W | Updated 36 minutes ago

Mostly Cloudy
Mostly Cloudy
73 °F
Feels Like 73 °F
N
21
Wind Variable Wind from WNW

Today
High -- | Low -- °F
--% Chance of Precip.
Yesterday
High -- | Low -- °F
Precip. -- in
6:36 AM 7:41 PM
Waxing Crescent, 17% visible
Pressure 29.90 in
Visibility 10.0 miles
Clouds Few 8000 ft
Scattered Clouds 11000 ft
Mostly Cloudy 17000 ft
Dew Point 60 °F
Humidity 64%
Rainfall 0.00 in
Snow Depth Not available.
UV 4 out of 12
Pollen 7.40 out of 12
Air Quality Not available.
Flu Activity Not available.
METAR KSJC 292153Z 30018KT 10SM FEW080 SCT110 BKN170 23/16 A2990 RMK AO2 SLP123 T02280156

More Conditions Fewer Conditions

Pressure 29.90 in
Visibility 10.0 miles
Clouds Few 8000 ft
Scattered Clouds 11000 ft
Mostly Cloudy 17000 ft
Dew Point 60 °F
Humidity 64%
Rainfall 0.00 in
Snow Depth Not available.
UV 4 out of 12
Pollen 7.40 out of 12
Air Quality Not available.
Flu Activity Not available.
METAR KSJC 292153Z 30018KT 10SM FEW080 SCT110 BKN170 23/16 A2990 RMK AO2 SLP123 T02280156

More Conditions Fewer Conditions

10-Day Weather Forecast

Almanac

Astronomy

Aug. 29, 2014 Rise Set
Actual Time 6:36 AM PDT 7:41 PM PDT
Civil Twilight 6:09 AM PDT 8:08 PM PDT
Nautical Twilight 5:37 AM PDT 8:40 PM PDT
Astronomical Twilight 5:04 AM PDT 9:13 PM PDT
Moon 10:25 AM PDT 9:48 PM PDT
Length of Visible Light 13h 58m
Length of Day
13h 05m
Tomorrow will be 2m 16s shorter.
Waxing Crescent, 17% of the Moon is Illuminated
Today
Waxing Crescent
Sep 2
First Quarter
Sep 8
Full
Sep 15
Last Quarter
Sep 24
New

Today's Extremes

State Highs State Lows

Community

WunderPhotos

Upload Photos

1,748,360 photos uploaded!

Nearby

Air Quality

  Air Quality AQ Index Pollutant
Yesterday Good
PM2.5
Yesterday Good
OZONE
Friday Good
PM2.5
Saturday Good
PM2.5
Sunday Good
OZONE
Monday Good
OZONE
Tuesday Good
PM2.5
Wednesday Good
OZONE

Snow Depth

Station Depth Elevation
Leavitt Meadows 0 in 7200 ft
Summit Meadow 0 in 9122 ft
CSS Lab 2 in 6900 ft
Adin Mountain 0 in 6200 ft

Earthquake Activity

City Distance Mag. Time & Date
The Geysers, California 101 miles 2.7 2:53 PM PDT
2014-08-29
Ridgemark, California 69 miles 3.0 2:44 PM PDT
2014-08-29
Napa, California 55 miles 2.6 11:57 AM PDT
2014-08-27
The Geysers, California 101 miles 2.6 7:42 AM PDT
2014-08-27
Minimum magnitude displayed is 2.5.

Coastal Water Temperatures

Place Temperature
No Stations Reporting

Nearby Weather Stations